createdAt,value
2018-12-11T00:00:20.537Z,9.30
2018-12-11T00:02:48.194Z,9.47
2018-12-11T00:05:16.067Z,10.83
2018-12-11T00:07:43.594Z,9.40
2018-12-11T00:10:11.116Z,9.23
2018-12-11T00:12:38.650Z,9.07
2018-12-11T00:15:06.222Z,9.43
2018-12-11T00:17:33.754Z,9.60
2018-12-11T00:20:01.272Z,9.23
2018-12-11T00:22:28.794Z,8.80
2018-12-11T00:24:56.362Z,8.80
2018-12-11T00:27:23.867Z,9.10
2018-12-11T00:29:51.393Z,8.57
2018-12-11T00:32:18.938Z,8.70
2018-12-11T00:34:46.460Z,9.07
2018-12-11T00:37:13.972Z,8.30
2018-12-11T00:39:41.546Z,8.87
2018-12-11T00:42:09.130Z,8.13
2018-12-11T00:44:36.647Z,7.77
2018-12-11T00:47:04.214Z,8.70
2018-12-11T00:49:31.774Z,7.93
2018-12-11T00:51:59.313Z,8.70
2018-12-11T00:54:26.814Z,8.60
2018-12-11T00:56:54.337Z,11.27
2018-12-11T00:59:21.848Z,10.83
2018-12-11T01:01:49.366Z,12.03
2018-12-11T01:04:16.881Z,11.20
2018-12-11T01:06:44.410Z,10.43
2018-12-11T01:09:11.914Z,11.50
2018-12-11T01:11:39.428Z,12.07
2018-12-11T01:14:06.943Z,12.43
2018-12-11T01:16:34.447Z,11.57
2018-12-11T01:19:01.956Z,11.23
2018-12-11T01:21:29.513Z,11.20
2018-12-11T01:23:57.023Z,11.40
2018-12-11T01:26:24.523Z,10.20
2018-12-11T01:28:52.039Z,9.57
2018-12-11T01:31:19.547Z,10.33
2018-12-11T01:33:47.066Z,10.63
2018-12-11T01:36:14.695Z,9.67
2018-12-11T01:38:42.213Z,10.20
2018-12-11T01:41:09.715Z,9.90
2018-12-11T01:43:37.253Z,9.77
2018-12-11T01:46:04.764Z,8.60
2018-12-11T01:48:32.293Z,9.30
2018-12-11T01:50:59.869Z,8.93
2018-12-11T01:53:27.417Z,8.77
2018-12-11T01:55:54.927Z,8.30
2018-12-11T01:58:22.458Z,8.70
2018-12-11T02:00:49.973Z,7.53
2018-12-11T02:03:17.473Z,7.90
2018-12-11T02:05:45.008Z,7.77
2018-12-11T02:08:12.523Z,7.07
2018-12-11T02:10:40.102Z,6.43
2018-12-11T02:13:07.626Z,6.63
2018-12-11T02:15:35.244Z,6.30
2018-12-11T02:18:02.906Z,7.03
2018-12-11T02:20:30.430Z,6.47
2018-12-11T02:22:57.944Z,6.70
2018-12-11T02:25:25.459Z,6.00
2018-12-11T02:27:53.229Z,6.70
2018-12-11T02:30:20.780Z,6.30
2018-12-11T02:32:48.302Z,6.53
2018-12-11T02:35:15.813Z,5.77
2018-12-11T02:37:43.339Z,6.03
2018-12-11T02:40:10.852Z,5.63
2018-12-11T02:42:38.372Z,5.60
2018-12-11T02:45:05.960Z,5.20
2018-12-11T02:47:33.487Z,5.07
2018-12-11T02:50:01.016Z,5.53
2018-12-11T02:52:28.527Z,4.50
2018-12-11T02:54:56.049Z,5.00
2018-12-11T02:57:23.558Z,4.70
2018-12-11T02:59:51.096Z,4.70
2018-12-11T03:02:18.617Z,4.87
2018-12-11T03:04:46.123Z,5.30
2018-12-11T03:07:13.727Z,4.83
2018-12-11T03:09:41.327Z,5.07
2018-12-11T03:12:08.836Z,5.07
2018-12-11T03:14:36.352Z,5.37
2018-12-11T03:17:03.912Z,5.13
2018-12-11T03:19:31.420Z,4.80
2018-12-11T03:21:59.027Z,4.90
2018-12-11T03:24:26.542Z,3.70
2018-12-11T03:26:54.057Z,4.33
2018-12-11T03:29:21.564Z,4.30
2018-12-11T03:31:49.092Z,4.20
2018-12-11T03:34:16.611Z,4.67
2018-12-11T03:36:44.118Z,4.30
2018-12-11T03:39:11.662Z,4.67
2018-12-11T03:41:39.189Z,4.63
2018-12-11T03:44:06.698Z,4.17
2018-12-11T03:46:34.216Z,4.23
2018-12-11T03:49:01.736Z,4.40
2018-12-11T03:51:29.245Z,3.80
2018-12-11T03:53:56.751Z,4.47
2018-12-11T04:03:08.044Z,4.30
2018-12-11T04:05:35.589Z,4.63
2018-12-11T04:08:03.422Z,4.83
2018-12-11T04:10:30.983Z,5.03
2018-12-11T04:12:58.565Z,5.57
2018-12-11T04:15:26.081Z,5.50
2018-12-11T04:17:53.690Z,4.90
2018-12-11T04:20:21.307Z,5.20
2018-12-11T04:22:48.817Z,5.50
2018-12-11T04:25:16.315Z,6.77
2018-12-11T04:27:43.857Z,5.13
2018-12-11T04:30:11.554Z,4.93
2018-12-11T04:32:39.083Z,5.37
2018-12-11T04:35:06.623Z,5.07
2018-12-11T04:37:34.147Z,4.93
2018-12-11T04:40:01.672Z,5.53
2018-12-11T04:42:29.208Z,5.00
2018-12-11T04:44:57.723Z,5.73
2018-12-11T04:47:25.275Z,5.50
2018-12-11T04:49:52.793Z,5.30
2018-12-11T04:52:20.312Z,5.33
2018-12-11T04:54:47.813Z,5.27
2018-12-11T04:57:15.318Z,5.90
2018-12-11T04:59:42.832Z,5.20
2018-12-11T05:02:10.348Z,5.60
2018-12-11T05:04:37.853Z,5.93
2018-12-11T05:07:05.368Z,5.73
2018-12-11T05:09:32.878Z,5.60
2018-12-11T05:12:00.404Z,6.20
2018-12-11T05:14:27.927Z,4.90
2018-12-11T05:16:55.440Z,5.80
2018-12-11T05:19:22.951Z,5.63
2018-12-11T05:21:50.469Z,6.07
2018-12-11T05:24:18.111Z,5.37
2018-12-11T05:26:45.634Z,6.17
2018-12-11T05:29:13.209Z,6.60
2018-12-11T05:31:40.723Z,6.90
2018-12-11T05:34:08.236Z,6.67
2018-12-11T05:36:35.834Z,6.23
2018-12-11T05:39:05.114Z,6.17
2018-12-11T05:41:32.627Z,5.30
2018-12-11T05:44:00.164Z,5.70
2018-12-11T05:46:27.685Z,5.93
2018-12-11T05:48:55.194Z,6.17
2018-12-11T05:51:22.714Z,5.53
2018-12-11T05:53:50.221Z,5.47
2018-12-11T05:56:17.733Z,6.13
2018-12-11T05:58:45.254Z,6.40
2018-12-11T06:01:12.753Z,5.80
2018-12-11T06:03:40.277Z,7.23
2018-12-11T06:06:07.847Z,6.63
2018-12-11T06:08:35.369Z,6.90
2018-12-11T06:11:02.887Z,6.93
2018-12-11T06:13:30.421Z,6.73
2018-12-11T06:15:57.929Z,7.90
2018-12-11T06:18:25.433Z,8.17
2018-12-11T06:20:52.966Z,8.27
2018-12-11T06:23:20.491Z,9.50
2018-12-11T06:25:48.007Z,8.80
2018-12-11T06:28:15.515Z,8.57
2018-12-11T06:30:43.045Z,8.43
2018-12-11T06:33:10.549Z,8.37
2018-12-11T06:35:38.065Z,8.23
2018-12-11T06:38:05.618Z,8.17
2018-12-11T06:40:33.116Z,8.53
2018-12-11T06:43:00.651Z,8.57
2018-12-11T06:45:28.165Z,7.60
2018-12-11T06:47:55.690Z,7.83
2018-12-11T06:50:23.281Z,7.80
2018-12-11T06:52:50.819Z,7.97
2018-12-11T06:55:18.344Z,7.70
2018-12-11T06:57:45.862Z,8.30
2018-12-11T07:00:13.385Z,7.80
2018-12-11T07:02:40.911Z,7.50
2018-12-11T07:05:08.547Z,8.00
2018-12-11T07:07:36.107Z,6.17
2018-12-11T07:10:05.258Z,7.43
2018-12-11T07:12:32.863Z,9.40
2018-12-11T07:15:00.405Z,9.90
2018-12-11T07:17:27.935Z,10.63
2018-12-11T07:19:55.457Z,10.80
2018-12-11T07:22:22.981Z,10.60
2018-12-11T07:24:50.553Z,11.97
2018-12-11T07:27:18.073Z,11.07
2018-12-11T07:29:45.583Z,10.37
2018-12-11T07:32:13.135Z,13.13
2018-12-11T07:34:40.647Z,15.90
2018-12-11T07:37:08.155Z,13.80
2018-12-11T07:39:35.691Z,11.93
2018-12-11T07:42:03.353Z,12.57
2018-12-11T07:44:30.867Z,12.87
2018-12-11T07:46:58.403Z,11.50
2018-12-11T07:49:25.978Z,11.07
2018-12-11T07:51:53.507Z,10.93
2018-12-11T07:54:21.013Z,10.33
2018-12-11T07:56:48.526Z,11.20
2018-12-11T07:59:16.026Z,9.43
2018-12-11T08:01:43.550Z,9.67
2018-12-11T08:04:11.095Z,10.57
2018-12-11T08:06:38.618Z,10.47
2018-12-11T08:09:06.463Z,9.30
2018-12-11T08:11:34.057Z,10.47
2018-12-11T08:14:01.717Z,9.80
2018-12-11T08:16:29.517Z,9.07
2018-12-11T08:18:57.303Z,9.17
2018-12-11T08:21:24.832Z,15.73
2018-12-11T08:23:52.347Z,13.60
2018-12-11T08:26:19.859Z,23.30
2018-12-11T08:28:47.381Z,20.17
2018-12-11T08:31:14.981Z,18.50
2018-12-11T08:33:42.490Z,17.03
2018-12-11T08:36:10.035Z,15.97
2018-12-11T08:38:37.563Z,14.73
2018-12-11T08:41:05.090Z,13.90
2018-12-11T08:43:32.616Z,13.20
2018-12-11T08:46:00.266Z,12.20
2018-12-11T08:48:27.818Z,17.83
2018-12-11T08:50:55.340Z,17.07
2018-12-11T08:53:22.861Z,12.57
2018-12-11T08:55:50.383Z,12.07
2018-12-11T08:58:17.928Z,12.70
2018-12-11T09:00:45.570Z,11.50
2018-12-11T09:03:13.171Z,12.13
2018-12-11T09:05:40.687Z,12.90
2018-12-11T09:08:08.227Z,12.17
2018-12-11T09:10:35.757Z,12.13
2018-12-11T09:13:03.421Z,11.70
2018-12-11T09:15:30.959Z,11.87
2018-12-11T09:17:58.511Z,12.90
2018-12-11T09:20:26.043Z,13.33
2018-12-11T09:22:53.629Z,12.10
2018-12-11T09:25:21.153Z,12.67
2018-12-11T09:27:48.665Z,11.40
2018-12-11T09:30:16.190Z,10.50
2018-12-11T09:32:43.707Z,14.00
2018-12-11T09:35:11.224Z,15.03
2018-12-11T09:37:38.798Z,13.60
2018-12-11T09:40:06.324Z,11.60
2018-12-11T09:42:33.842Z,12.43
2018-12-11T09:45:01.366Z,12.47
2018-12-11T09:47:28.890Z,13.80
2018-12-11T09:49:56.401Z,14.40
2018-12-11T09:52:24.179Z,14.10
2018-12-11T09:54:51.699Z,13.63
2018-12-11T09:57:19.216Z,12.63
2018-12-11T09:59:46.738Z,12.23
2018-12-11T10:02:14.354Z,11.40
2018-12-11T10:04:41.864Z,11.43
2018-12-11T10:07:09.500Z,11.43
2018-12-11T10:09:37.258Z,10.70
2018-12-11T10:12:04.875Z,10.93
2018-12-11T10:14:32.398Z,11.20
2018-12-11T10:17:00.111Z,12.20
2018-12-11T10:19:27.653Z,10.80
2018-12-11T10:21:55.175Z,11.40
2018-12-11T10:24:24.562Z,12.23
2018-12-11T10:26:52.149Z,11.33
2018-12-11T10:29:19.799Z,11.40
2018-12-11T10:31:47.324Z,11.90
2018-12-11T10:34:14.849Z,11.90
2018-12-11T10:36:42.367Z,13.20
2018-12-11T10:39:09.889Z,14.27
2018-12-11T10:41:37.423Z,13.30
2018-12-11T10:44:04.938Z,15.17
2018-12-11T10:46:33.903Z,16.47
2018-12-11T10:49:01.780Z,16.00
2018-12-11T10:51:29.406Z,15.50
2018-12-11T10:53:57.017Z,13.67
2018-12-11T10:56:24.529Z,12.40
2018-12-11T10:58:52.165Z,12.63
2018-12-11T11:01:21.665Z,12.53
2018-12-11T11:03:49.317Z,12.67
2018-12-11T11:06:16.833Z,11.60
2018-12-11T11:08:44.355Z,11.77
2018-12-11T11:11:11.872Z,12.37
2018-12-11T11:13:39.446Z,12.20
2018-12-11T11:16:08.938Z,13.37
2018-12-11T11:18:36.468Z,12.27
2018-12-11T11:21:03.988Z,13.13
2018-12-11T11:23:31.510Z,12.70
2018-12-11T11:25:59.174Z,12.80
2018-12-11T11:28:26.686Z,15.00
2018-12-11T11:30:54.193Z,14.40
2018-12-11T11:33:21.734Z,13.20
2018-12-11T11:35:49.252Z,12.63
2018-12-11T11:38:16.781Z,12.33
2018-12-11T11:40:44.416Z,13.63
2018-12-11T11:43:11.964Z,13.57
2018-12-11T11:45:39.517Z,13.37
2018-12-11T11:48:08.328Z,14.50
2018-12-11T11:50:36.577Z,13.60
2018-12-11T11:53:04.087Z,13.50
2018-12-11T11:55:31.595Z,14.60
2018-12-11T11:57:59.125Z,14.63
2018-12-11T12:00:26.635Z,13.73
2018-12-11T12:02:54.133Z,14.53
2018-12-11T12:05:21.691Z,13.37
2018-12-11T12:07:49.209Z,13.70
2018-12-11T12:10:16.714Z,14.00
2018-12-11T12:12:44.262Z,13.53
2018-12-11T12:15:11.791Z,12.80
2018-12-11T12:17:39.325Z,13.80
2018-12-11T12:20:08.081Z,12.93
2018-12-11T12:22:35.612Z,14.20
2018-12-11T12:25:03.666Z,13.47
2018-12-11T12:27:32.542Z,11.53
2018-12-11T12:30:00.064Z,12.03
2018-12-11T12:32:27.574Z,10.73
2018-12-11T12:34:55.083Z,10.50
2018-12-11T12:37:22.594Z,10.27
2018-12-11T12:39:50.113Z,10.27
2018-12-11T12:42:17.642Z,10.43
2018-12-11T12:44:45.172Z,10.70
2018-12-11T12:47:12.809Z,10.60
2018-12-11T12:49:40.318Z,10.80
2018-12-11T12:52:07.829Z,9.63
2018-12-11T12:54:35.351Z,8.37
2018-12-11T12:57:02.862Z,8.17
2018-12-11T12:59:30.367Z,8.27
2018-12-11T13:01:57.937Z,7.30
2018-12-11T13:04:25.525Z,6.67
2018-12-11T13:06:53.366Z,7.20
2018-12-11T13:09:20.902Z,7.07
2018-12-11T13:11:48.437Z,7.80
2018-12-11T13:14:15.963Z,7.37
2018-12-11T13:16:43.508Z,6.67
2018-12-11T13:19:11.119Z,6.57
2018-12-11T13:21:38.631Z,6.13
2018-12-11T13:24:06.144Z,6.30
2018-12-11T13:26:33.712Z,5.50
2018-12-11T13:29:01.299Z,6.50
2018-12-11T13:31:28.866Z,5.37
2018-12-11T13:33:56.374Z,6.13
2018-12-11T13:36:23.960Z,6.47
2018-12-11T13:38:51.605Z,6.90
2018-12-11T13:41:19.119Z,6.23
2018-12-11T13:43:47.236Z,5.87
2018-12-11T13:46:14.738Z,5.67
2018-12-11T13:48:42.854Z,5.47
2018-12-11T13:51:10.531Z,6.40
2018-12-11T13:53:38.045Z,4.73
2018-12-11T13:56:05.546Z,4.77
2018-12-11T13:58:33.137Z,4.50
2018-12-11T14:01:00.639Z,4.50
2018-12-11T14:03:28.163Z,4.73
2018-12-11T14:05:55.752Z,4.80
2018-12-11T14:08:23.268Z,4.50
2018-12-11T14:10:50.777Z,4.00
2018-12-11T14:13:18.494Z,3.63
2018-12-11T14:15:46.353Z,3.07
2018-12-11T14:18:13.867Z,3.37
2018-12-11T14:20:41.384Z,3.40
2018-12-11T14:23:08.899Z,3.20
2018-12-11T14:25:36.429Z,3.40
2018-12-11T14:28:04.059Z,3.40
2018-12-11T14:30:31.606Z,4.03
2018-12-11T14:32:59.145Z,3.47
2018-12-11T14:35:26.647Z,3.93
2018-12-11T14:37:54.150Z,4.07
2018-12-11T14:40:21.662Z,3.80
2018-12-11T14:42:49.184Z,3.53
2018-12-11T14:45:16.689Z,3.23
2018-12-11T14:47:44.203Z,3.53
2018-12-11T14:50:11.721Z,4.27
2018-12-11T14:52:39.228Z,3.40
2018-12-11T14:55:06.734Z,3.00
2018-12-11T14:57:34.232Z,3.07
2018-12-11T15:00:01.743Z,3.70
2018-12-11T15:02:29.606Z,3.50
2018-12-11T15:04:57.655Z,3.50
2018-12-11T15:07:25.241Z,3.20
2018-12-11T15:09:52.749Z,3.53
2018-12-11T15:12:20.351Z,3.90
2018-12-11T15:14:47.865Z,4.00
2018-12-11T15:17:15.382Z,3.40
2018-12-11T15:19:42.895Z,3.50
2018-12-11T15:22:10.649Z,4.00
2018-12-11T15:24:38.160Z,3.27
2018-12-11T15:27:05.664Z,3.90
2018-12-11T15:29:33.163Z,3.60
2018-12-11T15:32:00.727Z,3.33
2018-12-11T15:34:28.325Z,3.73
2018-12-11T15:36:55.830Z,3.73
2018-12-11T15:39:23.346Z,3.07
2018-12-11T15:41:50.860Z,3.87
2018-12-11T15:44:18.362Z,3.90
2018-12-11T15:46:46.167Z,3.80
2018-12-11T15:49:13.704Z,3.60
2018-12-11T15:51:41.597Z,3.37
2018-12-11T15:54:09.187Z,3.53
2018-12-11T15:56:36.729Z,4.20
2018-12-11T15:59:07.748Z,4.67
2018-12-11T16:01:35.737Z,4.00
2018-12-11T16:04:03.672Z,4.20
2018-12-11T16:06:31.706Z,3.73
2018-12-11T16:08:59.217Z,4.00
2018-12-11T16:11:26.752Z,3.53
2018-12-11T16:13:54.567Z,4.00
2018-12-11T16:16:22.774Z,4.17
2018-12-11T16:18:50.984Z,3.50
2018-12-11T16:21:18.714Z,4.50
2018-12-11T16:23:46.308Z,4.20
2018-12-11T16:26:13.816Z,5.37
2018-12-11T16:28:41.424Z,5.73
2018-12-11T16:31:09.250Z,4.80
2018-12-11T16:33:37.019Z,4.87
2018-12-11T16:36:05.052Z,4.97
2018-12-11T16:38:32.702Z,4.80
2018-12-11T16:41:00.631Z,5.70
2018-12-11T16:43:28.402Z,5.87
2018-12-11T16:45:56.044Z,6.47
2018-12-11T16:48:23.946Z,6.17
2018-12-11T16:50:52.004Z,5.40
2018-12-11T16:53:19.780Z,5.90
2018-12-11T16:55:47.291Z,6.50
2018-12-11T16:58:14.808Z,7.00
2018-12-11T17:00:42.326Z,7.37
2018-12-11T17:03:09.865Z,6.50
2018-12-11T17:05:37.374Z,7.00
2018-12-11T17:08:05.008Z,7.47
2018-12-11T17:10:32.513Z,7.93
2018-12-11T17:13:00.129Z,7.90
2018-12-11T17:15:28.021Z,8.37
2018-12-11T17:17:55.531Z,8.10
2018-12-11T17:20:23.084Z,9.33
2018-12-11T17:22:50.607Z,9.57
2018-12-11T17:25:18.134Z,13.27
2018-12-11T17:27:45.675Z,11.40
2018-12-11T17:30:13.185Z,15.00
2018-12-11T17:32:40.698Z,18.20
2018-12-11T17:35:08.212Z,15.97
2018-12-11T17:37:35.722Z,15.03
2018-12-11T17:40:04.240Z,15.03
2018-12-11T17:42:31.763Z,18.23
2018-12-11T17:44:59.280Z,18.07
2018-12-11T17:47:26.791Z,17.03
2018-12-11T17:49:54.309Z,16.60
2018-12-11T17:52:21.822Z,13.83
2018-12-11T17:54:49.342Z,14.77
2018-12-11T17:57:16.844Z,14.93
2018-12-11T17:59:44.353Z,14.33
2018-12-11T18:02:13.894Z,14.70
2018-12-11T18:04:41.406Z,17.13
2018-12-11T18:07:08.918Z,16.20
2018-12-11T18:09:36.424Z,15.97
2018-12-11T18:12:03.940Z,15.53
2018-12-11T18:14:31.457Z,15.47
2018-12-11T18:16:58.981Z,14.60
2018-12-11T18:19:26.952Z,16.40
2018-12-11T18:21:54.486Z,15.60
2018-12-11T18:24:21.999Z,15.13
2018-12-11T18:26:49.590Z,15.00
2018-12-11T18:29:17.094Z,14.50
2018-12-11T18:31:44.587Z,14.00
2018-12-11T18:34:12.399Z,14.30
2018-12-11T18:36:40.007Z,14.23
2018-12-11T18:39:07.505Z,13.53
2018-12-11T18:41:35.037Z,14.00
2018-12-11T18:44:02.551Z,14.27
2018-12-11T18:46:30.067Z,14.50
2018-12-11T18:48:57.566Z,15.23
2018-12-11T18:51:25.079Z,13.47
2018-12-11T18:53:52.588Z,13.00
2018-12-11T18:56:20.111Z,14.60
2018-12-11T18:58:47.615Z,14.33
2018-12-11T19:01:15.555Z,13.97
2018-12-11T19:03:49.101Z,15.83
2018-12-11T19:06:12.877Z,15.60
2018-12-11T19:08:40.594Z,14.53
2018-12-11T19:11:08.110Z,14.50
2018-12-11T19:13:35.615Z,14.40
2018-12-11T19:16:03.258Z,15.23
2018-12-11T19:18:31.083Z,16.00
2018-12-11T19:20:58.666Z,15.63
2018-12-11T19:23:27.623Z,18.03
2018-12-11T19:25:55.141Z,17.90
2018-12-11T19:28:22.655Z,17.60
2018-12-11T19:30:50.163Z,18.13
2018-12-11T19:33:17.698Z,17.50
2018-12-11T19:35:45.215Z,17.33
2018-12-11T19:38:12.850Z,17.10
2018-12-11T19:40:40.973Z,17.87
2018-12-11T19:43:09.898Z,19.47
2018-12-11T19:45:37.390Z,21.67
2018-12-11T19:48:05.442Z,20.47
2018-12-11T19:50:32.956Z,19.67
2018-12-11T19:53:00.450Z,18.63
2018-12-11T19:55:28.083Z,18.03
2018-12-11T19:57:59.600Z,18.70
2018-12-11T20:00:25.283Z,17.00
2018-12-11T20:02:52.888Z,18.43
2018-12-11T20:05:20.414Z,17.60
2018-12-11T20:07:48.288Z,17.53
2018-12-11T20:10:16.246Z,17.37
2018-12-11T20:12:44.244Z,16.90
2018-12-11T20:15:11.750Z,16.13
2018-12-11T20:17:39.266Z,15.90
2018-12-11T20:20:07.145Z,17.13
2018-12-11T20:22:34.847Z,17.37
2018-12-11T20:25:02.363Z,15.80
2018-12-11T20:27:29.892Z,15.13
2018-12-11T20:29:57.431Z,15.27
2018-12-11T20:32:24.939Z,16.23
2018-12-11T20:34:52.437Z,16.73
2018-12-11T20:37:19.948Z,15.97
2018-12-11T20:39:47.526Z,16.00
2018-12-11T20:42:15.050Z,16.87
2018-12-11T20:44:42.560Z,20.30
2018-12-11T20:47:10.087Z,17.03
2018-12-11T20:49:37.589Z,17.03
2018-12-11T20:52:05.301Z,17.40
2018-12-11T20:54:33.715Z,16.40
2018-12-11T20:57:01.453Z,17.47
2018-12-11T20:59:28.969Z,16.90
2018-12-11T21:01:56.496Z,16.03
2018-12-11T21:04:24.009Z,16.60
2018-12-11T21:06:51.540Z,17.50
2018-12-11T21:09:19.164Z,16.40
2018-12-11T21:11:46.669Z,17.40
2018-12-11T21:14:14.283Z,15.67
2018-12-11T21:16:41.801Z,14.90
2018-12-11T21:19:09.381Z,15.30
2018-12-11T21:21:38.121Z,17.67
2018-12-11T21:24:06.016Z,17.17
2018-12-11T21:26:33.529Z,18.80
2018-12-11T21:29:01.050Z,18.10
2018-12-11T21:31:28.577Z,18.03
2018-12-11T21:33:56.111Z,18.23
2018-12-11T21:36:23.841Z,18.20
2018-12-11T21:38:51.364Z,18.00
2018-12-11T21:41:18.892Z,17.17
2018-12-11T21:43:46.417Z,17.63
2018-12-11T21:46:13.927Z,17.30
2018-12-11T21:48:41.725Z,17.13
2018-12-11T21:51:09.233Z,17.70
2018-12-11T21:53:36.740Z,17.40
2018-12-11T21:56:04.379Z,17.50
2018-12-11T21:58:31.979Z,17.50
2018-12-11T22:00:59.597Z,18.03
2018-12-11T22:03:27.402Z,16.10
2018-12-11T22:05:55.275Z,17.47
2018-12-11T22:08:23.181Z,18.10
2018-12-11T22:10:50.700Z,16.37
2018-12-11T22:13:18.214Z,18.00
2018-12-11T22:15:45.723Z,17.40
2018-12-11T22:18:13.254Z,17.77
2018-12-11T22:20:40.788Z,17.03
2018-12-11T22:23:08.300Z,17.37
2018-12-11T22:25:35.812Z,18.07
2018-12-11T22:28:03.324Z,18.57
2018-12-11T22:30:30.913Z,16.97
2018-12-11T22:32:58.434Z,18.13
2018-12-11T22:35:25.968Z,18.43
2018-12-11T22:37:53.573Z,18.97
2018-12-11T22:40:21.148Z,18.07
2018-12-11T22:42:48.674Z,19.63
2018-12-11T22:45:16.213Z,19.10
2018-12-11T22:47:43.733Z,18.53
2018-12-11T22:50:11.261Z,19.13
2018-12-11T22:52:38.887Z,18.07
2018-12-11T22:55:06.442Z,18.27
2018-12-11T22:57:34.055Z,17.30
2018-12-11T23:00:01.587Z,18.13
2018-12-11T23:02:29.169Z,16.57
2018-12-11T23:04:56.709Z,17.20
2018-12-11T23:07:24.260Z,16.50
2018-12-11T23:09:51.790Z,16.80
2018-12-11T23:12:19.326Z,16.17
2018-12-11T23:14:46.844Z,15.77
2018-12-11T23:17:14.361Z,15.23
2018-12-11T23:19:41.883Z,16.57
2018-12-11T23:22:09.405Z,15.53
2018-12-11T23:24:37.001Z,16.60
2018-12-11T23:27:05.016Z,15.83
2018-12-11T23:29:32.537Z,14.70
2018-12-11T23:32:00.125Z,15.07
2018-12-11T23:34:27.636Z,15.67
2018-12-11T23:36:55.160Z,15.10
2018-12-11T23:39:22.683Z,15.37
2018-12-11T23:41:50.199Z,15.10
2018-12-11T23:44:17.791Z,15.87
2018-12-11T23:46:45.308Z,17.23
2018-12-11T23:49:12.831Z,18.20
2018-12-11T23:51:40.342Z,17.23
2018-12-11T23:54:07.860Z,16.27
2018-12-11T23:56:35.395Z,16.20
2018-12-11T23:59:03.085Z,16.07
